Tiempo atmosférico en la estación meteorológica de Tenerife Sur Aeropuerto, Santa Cruz de Tenerife (64 m.)



Fecha
DESCASC
Temp. máxima en grados centígrados (hora)
DESCASC
Temp. mínima en grados centígrados (hora)
DESCASC
Temp. media en grados centígrados
DESCASC
Racha de viento máxima en m/sg (hora)
DESCASC
Velocidad máxima media en intervalos de 10 minutos(hora)
DESCASC
Precipitaciones diarias en mm
DESCASC
Precipitaciones de 00:00 a 06:00 en mm
DESCASC
Precipitaciones de 06:00 a 12:00 en mm
DESCASC
Precipitaciones de 12:00 a 18:00 en mm
DESCASC
Precipitaciones de 18:00 a 24:00 en mm
DESCASC
22-11-2020 -- (--) -- (--) -- -- (--) -- (--) -- -- -- 0 0
21-11-2020 27.1 (11:50) 19.4 (06:30) 23.3 11.39 (22:20) 8.33 (21:10) 0 0 0 0 0
20-11-2020 28 (12:40) 19 (07:40) 23.5 12.78 (09:00) 8.89 (09:00) 0 0 0 0 0
19-11-2020 25.8 (12:10) 19.4 (00:00) 22.6 13.89 (11:10) 10.56 (11:10) -- 0 -- 0 0
18-11-2020 32.6 (12:20) 20.9 (00:00) 26.7 8.33 (10:20) 6.11 (14:10) 0 0 0 0 0
17-11-2020 32.7 (12:20) 21.7 (00:00) 27.2 8.33 (05:30) 5.83 (05:30) 0 0 0 0 0
16-11-2020 30.9 (11:50) 19.2 (00:00) 25.1 6.67 (02:20) 5.28 (02:30) 0 0 0 0 0
15-11-2020 29.4 (13:00) 19.7 (00:00) 24.6 12.5 (09:30) 9.72 (09:30) 0 0 0 0 0
14-11-2020 26.9 (15:00) 20.1 (00:00) 23.5 13.33 (15:20) 11.39 (15:30) 0 0 0 0 0
13-11-2020 26.1 (15:20) 19.8 (00:00) 22.9 6.67 (00:30) 5.28 (02:50) 0 0 0 0 0
12-11-2020 24.5 (12:10) 19.3 (00:00) 21.9 8.89 (02:20) 6.39 (02:20) 0 0 0 0 0
11-11-2020 24.3 (11:40) 18.6 (00:00) 21.4 9.17 (04:50) 7.5 (04:30) 0 0 0 0 0
10-11-2020 25 (13:10) 19.1 (00:00) 22.1 15.28 (12:30) 11.67 (12:40) 0 0 0 0 0
09-11-2020 25.2 (15:00) 18.2 (00:00) 21.7 13.33 (16:00) 9.44 (12:30) 0 0 0 0 0
08-11-2020 25.1 (13:20) 16.5 (00:00) 20.8 9.17 (14:20) 6.11 (15:50) 0 0 0 0 0
07-11-2020 24.7 (13:30) 17.9 (00:00) 21.3 7.78 (12:40) 5.83 (15:50) 0 0 0 0 0
06-11-2020 27.6 (15:10) 18.1 (00:00) 22.9 15.28 (15:00) 11.11 (15:00) 7.9 6.6 1.3 0 0
05-11-2020 25.5 (13:30) 16.6 (00:00) 21.1 13.33 (16:30) 10.56 (15:40) 0 0 0 0 0
04-11-2020 24.8 (12:00) 19.4 (00:00) 22.1 16.11 (02:00) 11.94 (08:00) 0 0 0 0 0
03-11-2020 26.4 (13:50) 20.7 (00:00) 23.6 18.61 (20:40) 12.78 (23:20) 0 0 0 0 0
02-11-2020 27.4 (14:40) 21.1 (00:00) 24.3 16.94 (09:50) 12.5 (10:00) 0 0 0 0 0
01-11-2020 33.1 (12:40) 23.1 (00:00) 28.1 16.39 (11:40) 12.5 (11:50) 0 0 0 0 0
31-10-2020 32 (16:20) 20.5 (00:00) 26.3 17.5 (18:30) 12.5 (18:30) 0 0 0 0 0
30-10-2020 26.1 (13:50) 17.7 (00:00) 21.9 11.67 (12:40) 8.89 (14:20) 0 0 0 0 0
29-10-2020 25.6 (12:30) 18.9 (00:00) 22.3 11.67 (12:30) 8.89 (13:10) 0 0 0 0 0
28-10-2020 25.2 (14:00) 20.4 (00:00) 22.8 13.89 (12:30) 10.28 (13:00) 0 0 0 0 0
27-10-2020 25.6 (14:00) 18.9 (00:00) 22.3 15 (12:50) 10.56 (11:40) 0 0 0 0 0
26-10-2020 26.3 (13:50) 19.7 (00:00) 23 18.06 (11:30) 12.22 (11:20) 0 0 0 0 0

Gráficas

Temp. máximas Temp. mínimas Temp. medias Precipitaciones Rachas de viento máximas Velocidades máximas media en intervalos de 10 minutos

Datos horarios

Fecha y hora oficial Temperatura (ºC) Velocidad del viento (km/h) Dirección del viento Racha (km/h) Dirección de racha Precipitación (mm) Presión (hPa) Tendencia (hPa) Humedad (%)
2020-11-24 23:00:00 20.7 15 Norte 21 Norte 0 1014 0.2 22
2020-11-24 22:00:00 20.1 12 Norte 13 Norte 0 1014.5 0.6 36
2020-11-24 21:00:00 20.1 11 Nordeste 15 Nordeste 0 1014.2 0.8 34
2020-11-24 20:00:00 20.1 12 Nordeste 24 Norte 0 1013.8 0.8 49
2020-11-24 19:00:00 21.1 6 Norte 8 Nordeste 0 1013.9 1.4 48
2020-11-24 18:00:00 22.4 4 Sudeste 9 Sudoeste 0 1013.4 0.8 48
2020-11-24 17:00:00 23.5 6 Sur 13 Sur 0 1013 -- 46
2020-11-24 16:00:00 24.1 10 Sudeste 15 Sudeste 0 1012.5 -- 33
2020-11-24 15:00:00 25.8 13 Sudeste 18 Sudeste 0 1012.6 -- 24
2020-11-24 14:00:00 25.7 12 Este 18 Este 0 1013.3 -- 27
2020-11-24 13:00:00 25.3 10 Este 18 Este 0 1014.1 -- 30
2020-11-24 12:00:00 24.7 11 Este 18 Este 0 1014.9 -- 37
2020-11-24 11:00:00 24.5 12 Este 24 Nordeste 0 1014.9 -- 39
2020-11-24 10:00:00 23 15 Nordeste 22 Nordeste 0 1014.7 -- 49
2020-11-24 09:00:00 21.5 14 Nordeste 18 Este 0 1014 -- 41
2020-11-24 08:00:00 21.5 13 Este 22 Nordeste 0 1013.3 -- 33
2020-11-24 07:00:00 21.7 16 Nordeste 22 Nordeste 0 1012.6 -- 31
2020-11-24 06:00:00 21.4 15 Nordeste 26 Nordeste 0 1012.1 -- 30
2020-11-24 05:00:00 21.4 19 Nordeste 26 Nordeste 0 1012.1 -- 33
2020-11-24 04:00:00 21 16 Nordeste 21 Nordeste 0 1012.5 -- 27
2020-11-24 03:00:00 21.3 11 Nordeste 24 Nordeste 0 1012.7 -- 24
2020-11-24 02:00:00 22.2 14 Nordeste 21 Nordeste 0 1012.9 -- 23
2020-11-24 01:00:00 22.5 14 Nordeste 26 Norte 0 1013.2 -- 22
2020-11-24 00:00:00 22.3 14 Norte 18 Norte 0 1013.6 -- 22
2020-11-23 23:00:00 22.1 15 Norte 22 Norte 0 1013.7 -- 25
2020-11-23 22:00:00 22.4 16 Norte 22 Nordeste 0 1013.5 -- 25
2020-11-23 21:00:00 22.3 15 Norte 22 Nordeste 0 1013.4 -- 28
2020-11-23 20:00:00 21.4 15 Nordeste 18 Nordeste 0 1013.3 -- 40
2020-11-23 19:00:00 22.2 11 Este 18 Nordeste 0 1012.6 -- 45
2020-11-23 18:00:00 23.7 14 Este 21 Este 0 1012.1 -- 43
2020-11-23 17:00:00 24.8 15 Este 26 Este 0 1011.8 -- 41
2020-11-23 16:00:00 25.5 15 Este 30 Este 0 1011.9 -- 38
2020-11-23 15:00:00 26.2 19 Este 32 Este 0 1011.8 -- 36
2020-11-23 14:00:00 26.5 21 Este 32 Este 0 1012.2 -- 35
2020-11-23 13:00:00 27 16 Este 30 Este 0 1012.9 -- 32
2020-11-23 12:00:00 26.9 15 Este 30 Este 0 1013.7 -- 31
2020-11-23 11:00:00 26.8 20 Este 32 Este 0 1013.7 -- 30
2020-11-23 10:00:00 26.6 15 Este 28 Este 0 1013.5 -- 28
2020-11-23 09:00:00 25.2 15 Este 30 Nordeste 0 1012.8 -- 30
2020-11-23 08:00:00 21 21 Norte 33 Nordeste 0 1012 -- 38
2020-11-23 07:00:00 20.4 24 Nordeste 35 Nordeste 0 1011.1 -- 47
2020-11-23 06:00:00 21 27 Nordeste 39 Nordeste 0 1010.4 -- 38
2020-11-23 05:00:00 21.9 28 Nordeste 39 Nordeste 0 1010.7 -- 35
2020-11-23 04:00:00 21.3 24 Nordeste 33 Nordeste 0 1010.9 -- 33
2020-11-23 03:00:00 21.5 21 Nordeste 28 Nordeste 0 1010.8 -- 25
2020-11-23 02:00:00 21.5 18 Nordeste 30 Nordeste 0 1011.1 -- 26
2020-11-23 01:00:00 22.6 22 Nordeste 32 Nordeste 0 1011.5 -- 30
2020-11-23 00:00:00 22.1 16 Este 32 Nordeste 0 1012.2 -- 33
2020-11-22 23:00:00 23.7 25 Nordeste 33 Nordeste 0 1011.9 -- 27
2020-11-22 22:00:00 23.3 26 Nordeste 35 Nordeste 0 1011.9 -- 32
2020-11-22 21:00:00 21 17 Nordeste 26 Nordeste 0 1011.7 -- 70
2020-11-22 20:00:00 21.3 20 Nordeste 30 Nordeste 0 1011.4 -- 77
2020-11-22 19:00:00 21.9 22 Nordeste 32 Este 0 1010.8 -- 75
2020-11-22 18:00:00 22.9 25 Nordeste 30 Este 0 1010.3 -- 71
2020-11-22 17:00:00 24.5 21 Este 30 Este 0 1010.3 -- 63
2020-11-22 16:00:00 25.1 23 Este 30 Este 0 1009.9 -- 62
2020-11-22 15:00:00 27.4 19 Este 32 Este 0 1010 -- 41
2020-11-22 14:00:00 26.5 25 Este 33 Este 0 1010.2 -- 52
2020-11-22 13:00:00 26.3 27 Nordeste 41 Nordeste 0 1010.9 -- 46
2020-11-22 12:00:00 24.8 33 Nordeste 45 Nordeste 0 1011.8 -- 54
2020-11-22 11:00:00 25.1 31 Este 45 Este 0 1012.1 -- 50
2020-11-22 10:00:00 25.3 32 Nordeste -- -- -- 1011.6 -- 38
2020-11-22 09:00:00 -- -- -- -- -- -- -- -- --
2020-11-22 08:00:00 -- -- -- -- -- -- -- -- --
2020-11-22 07:00:00 -- -- -- -- -- -- -- -- --
2020-11-22 06:00:00 -- -- -- -- -- -- -- -- --
2020-11-22 05:00:00 -- -- -- -- -- -- -- -- --
2020-11-22 04:00:00 -- -- -- -- -- -- -- -- --
2020-11-22 03:00:00 -- -- -- -- -- -- -- -- --
2020-11-22 02:00:00 -- -- -- -- -- -- -- -- --
2020-11-22 01:00:00 -- -- -- -- -- -- -- -- --
2020-11-22 00:00:00 23.6 26 Nordeste 41 Nordeste 0 1010.3 -- 30
2020-11-21 23:00:00 23.4 27 Nordeste 41 Nordeste 0 1010.3 -- 33
2020-11-21 22:00:00 23.7 24 Nordeste 39 Nordeste 0 1010.2 -- 34
2020-11-21 21:00:00 22 21 Nordeste 32 Nordeste 0 1009.8 -- 42
2020-11-21 20:00:00 22.3 10 Nordeste 28 Este 0 1009.6 -- 41
2020-11-21 19:00:00 23 9 Nordeste 15 Este 0 1009.8 -- 42
2020-11-21 18:00:00 24.2 10 Este 22 Este 0 1009.5 -- 41
2020-11-21 17:00:00 25.7 16 Este 26 Este 0 1009 -- 36
2020-11-21 16:00:00 26.3 17 Este 30 Este 0 1008.8 -- 36
2020-11-21 15:00:00 26.6 20 Este 32 Este 0 1008.7 -- 39
2020-11-21 14:00:00 26.7 18 Este 28 Este 0 1009 -- 37
2020-11-21 13:00:00 26.6 12 Este 22 Sudeste 0 1010 -- 37
2020-11-21 12:00:00 26.8 14 Este 24 Sudeste 0 1010.9 -- 32
2020-11-21 11:00:00 26.7 13 Este 28 Este 0 1011.7 -- 33
2020-11-21 10:00:00 25.9 12 Este 24 Nordeste 0 1011.6 -- 35
2020-11-21 09:00:00 24.7 13 Nordeste 22 Nordeste 0 1011.2 -- 37
2020-11-21 08:00:00 21.8 11 Nordeste 18 Nordeste 0 1010.7 -- 36
2020-11-21 07:00:00 21.6 13 Nordeste 21 Nordeste 0 1009.9 -- 31
2020-11-21 06:00:00 20.9 12 Este 21 Este 0 1009.4 -- 32
2020-11-21 05:00:00 21.5 17 Nordeste 24 Nordeste 0 1009.2 -- 31
2020-11-21 04:00:00 23 14 Norte 26 Nordeste 0 1009.3 -- 29
2020-11-21 03:00:00 21.5 16 Este 26 Nordeste 0 1009.4 -- 33
2020-11-21 02:00:00 21.1 13 Norte 18 Norte 0 1009.6 -- 35
2020-11-21 01:00:00 22.5 15 Norte 18 Norte 0 1010 -- 39
2020-11-21 00:00:00 21.5 13 Nordeste 21 Nordeste 0 1010.5 -- 41
2020-11-20 23:00:00 21.5 13 Nordeste 17 Nordeste 0 1010.8 -- 36
2020-11-20 22:00:00 21.9 10 Nordeste 15 Norte 0 1010.9 -- 37
2020-11-20 21:00:00 22.5 12 Nordeste 17 Nordeste 0 1010.7 -- 37
2020-11-20 20:00:00 22.9 12 Nordeste 17 Nordeste 0 1010.5 -- 40
2020-11-20 19:00:00 23 10 Nordeste 15 Nordeste 0 1010.2 -- 45
2020-11-20 18:00:00 24.2 12 Este 22 Este 0 1009.8 -- 48
2020-11-20 17:00:00 25.5 18 Este 26 Este 0 1009.5 -- 45
2020-11-20 16:00:00 26.9 15 Este 24 Este 0 1009.2 -- 36
2020-11-20 15:00:00 27.8 18 Este 26 Este 0 1009.2 -- 34
2020-11-20 14:00:00 27.7 17 Este 30 Este 0 1009.7 -- 34
2020-11-20 13:00:00 27.4 18 Este 28 Este 0 1010.4 -- 37
2020-11-20 12:00:00 27.5 17 Este 37 Este 0 1011.2 -- 37
2020-11-20 11:00:00 26.3 21 Nordeste 33 Este 0 1011.3 -- 50
2020-11-20 10:00:00 25.9 18 Nordeste 42 Norte 0 1011 -- 48
2020-11-20 09:00:00 21.6 32 Norte 46 Norte 0 1010.5 -- 70
2020-11-20 08:00:00 19.3 10 Norte 22 Norte 0 1010.9 -- 80
2020-11-20 07:00:00 19.6 16 Nordeste 24 Nordeste 0 1010.1 -- 82
2020-11-20 06:00:00 19.6 20 Nordeste 37 Nordeste 0 1009.3 -- 80
2020-11-20 05:00:00 19.4 20 Nordeste 37 Nordeste 0 1009.6 -- 81
2020-11-20 04:00:00 19.8 22 Nordeste 33 Nordeste 0 1009.9 -- 81
2020-11-20 03:00:00 19.8 19 Nordeste 30 Nordeste 0 1010.2 -- 82
2020-11-20 02:00:00 19.9 16 Nordeste 32 Nordeste 0 1010.7 -- 78
2020-11-20 01:00:00 20 21 Nordeste 33 Nordeste 0 1011.2 -- 77
2020-11-20 00:00:00 19.6 18 Nordeste 26 Nordeste 0 1012.3 -- 78
2020-11-19 23:00:00 19.8 13 Nordeste 18 Nordeste 0 1012.6 -- 79
2020-11-19 22:00:00 20.3 15 Nordeste 28 Nordeste 0 1012.5 -- 78
2020-11-19 21:00:00 20.6 15 Nordeste 21 Nordeste 0 1012.4 -- 78
2020-11-19 20:00:00 21.2 16 Nordeste 26 Nordeste 0 1012.1 -- 76
2020-11-19 19:00:00 21.4 21 Nordeste 30 Nordeste 0 1011.6 -- 76
2020-11-19 18:00:00 22.2 20 Nordeste 35 Nordeste 0 1011.2 -- 73
2020-11-19 17:00:00 23.5 25 Este 41 Este 0 1011 -- 69
2020-11-19 16:00:00 24.6 31 Este 42 Nordeste 0 1010.8 -- 65
2020-11-19 15:00:00 24.9 31 Este 46 Nordeste 0 1011.2 -- 64
2020-11-19 14:00:00 25.1 30 Este 48 Nordeste 0 1011.8 -- 64
2020-11-19 13:00:00 25.2 35 Este 50 Nordeste 0 1012.5 -- 63
2020-11-19 12:00:00 25.5 35 Este 50 Nordeste 0 1013.2 -- 57
2020-11-19 11:00:00 24.8 35 Nordeste 46 Este -- 1013.9 -- 62
2020-11-19 10:00:00 23.9 32 Nordeste 46 Nordeste -- 1014.2 -- 65
2020-11-19 09:00:00 22.9 29 Nordeste 42 Nordeste -- 1013.8 -- 71
2020-11-19 08:00:00 20.5 15 Nordeste 30 Nordeste 0 1013.6 -- 78
2020-11-19 07:00:00 20.3 19 Nordeste 30 Nordeste 0 1012.7 -- 76
2020-11-19 06:00:00 20.4 21 Nordeste 30 Nordeste 0 1012.6 -- 80
2020-11-19 05:00:00 20.1 10 Norte 17 Norte 0 1012.8 -- 78
2020-11-19 04:00:00 20.4 12 Norte 18 Nordeste 0 1012.7 -- 79
2020-11-19 03:00:00 20.6 11 Nordeste 21 Nordeste 0 1012.9 -- 78
2020-11-19 02:00:00 20.6 11 Norte 22 Nordeste 0 1013.4 -- 77
2020-11-19 01:00:00 21 14 Nordeste 28 Nordeste 0 1013.8 -- 72
2020-11-19 00:00:00 21.4 12 Nordeste 21 Nordeste 0 1014.3 -- 80
2020-11-18 23:00:00 21.5 12 Nordeste 21 Este 0 1014.3 -- 85
2020-11-18 22:00:00 21.7 -- -- -- -- 0 1014.6 -- 87
2020-11-18 21:00:00 21.9 5 Sudoeste 15 Oeste 0 1014.6 -- 89
2020-11-18 20:00:00 22.5 9 Oeste 11 Oeste 0 1014.1 -- 87
2020-11-18 19:00:00 22.9 4 Sur 9 Sur 0 1014 -- 85
2020-11-18 18:00:00 23.9 8 Sur 13 Sudoeste 0 1013.6 -- 81
2020-11-18 17:00:00 25.7 7 Sur 17 Sudeste 0 1013.4 -- 73
2020-11-18 16:00:00 26.5 10 Este 22 Este 0 1013.3 -- 67
2020-11-18 15:00:00 26.7 17 Sudeste 28 Este 0 1013.5 -- 62
2020-11-18 14:00:00 30.7 20 Sudeste 26 Sudeste 0 1013.5 -- 36
2020-11-18 13:00:00 31.8 18 Este 26 Este 0 1013.8 -- 21
2020-11-18 12:00:00 32.3 17 Este 26 Este 0 1014.3 -- 19
2020-11-18 11:00:00 31.4 18 Este 30 Nordeste 0 1014.7 -- 24
2020-11-18 10:00:00 29.6 19 Este 28 Nordeste 0 1014.6 -- 28
2020-11-18 09:00:00 26.2 10 Este 21 Nordeste 0 1014.2 -- 29
2020-11-18 08:00:00 22 14 Nordeste 18 Nordeste 0 1013.5 -- 32
2020-11-18 07:00:00 21.6 9 Nordeste 13 Nordeste 0 1013.3 -- 33
2020-11-18 06:00:00 21.7 5 Oeste 21 Norte 0 1013 -- 37
2020-11-18 05:00:00 22.1 13 Nordeste 18 Nordeste 0 1012.5 -- 32
2020-11-18 04:00:00 21.5 14 Este 18 Este 0 1012.6 -- 36
2020-11-18 03:00:00 21.4 3 Norte 9 Sudeste 0 1012.8 -- 34
2020-11-18 02:00:00 23.4 3 Noroeste 11 Noroeste 0 1012.7 -- 30
2020-11-18 01:00:00 22.7 7 Oeste 13 Nordeste 0 1013.2 -- 34
2020-11-18 00:00:00 23.9 8 Nordeste 21 Nordeste 0 1013.4 -- 32
2020-11-17 23:00:00 22.8 4 Norte 13 Nordeste 0 1013.7 -- 32
2020-11-17 22:00:00 23.8 12 Nordeste 13 Nordeste 0 1013.9 -- 31
2020-11-17 21:00:00 23.6 5 Norte 11 Norte 0 1013.5 -- 34
2020-11-17 20:00:00 24.6 9 Norte 13 Norte 0 1013.4 -- 38
2020-11-17 19:00:00 25.1 8 Este 11 Este 0 1012.7 -- 46
2020-11-17 18:00:00 26.3 8 Sudeste 11 Sudeste 0 1012.3 -- 49
2020-11-17 17:00:00 29.5 8 Este 13 Sudeste 0 1011.8 -- 25
2020-11-17 16:00:00 31.2 11 Sudeste 17 Este 0 1011.7 -- 19
2020-11-17 15:00:00 31.6 12 Sudeste 17 Sudeste 0 1011.7 -- 20
2020-11-17 14:00:00 32.3 11 Sudeste 17 Sudeste 0 1012.3 -- 17
2020-11-17 13:00:00 32.4 10 Sudeste 17 Sudeste 0 1013 -- 19
2020-11-17 12:00:00 32.4 12 Este 21 Este 0 1013.7 -- 17
2020-11-17 11:00:00 32.1 13 Este 21 Este 0 1014 1.3 18
2020-11-17 10:00:00 31.4 14 Este 21 Nordeste 0 1014 -- 18
2020-11-17 09:00:00 28.9 15 Nordeste 21 Nordeste 0 1013.5 -- 21
2020-11-17 08:00:00 24.4 12 Norte 18 Norte 0 1012.7 -- 27
2020-11-17 07:00:00 24.5 14 Nordeste 26 Norte 0 1012 -- 27
2020-11-17 06:00:00 24 20 Nordeste 30 Nordeste 0 1011.8 -- 32
2020-11-17 05:00:00 23.5 19 Nordeste 26 Nordeste 0 1011.5 -- 36
2020-11-17 04:00:00 24.3 14 Nordeste 28 Nordeste 0 1011.3 -- 32
2020-11-17 03:00:00 23 14 Este 18 Este 0 1011.5 -- 33
2020-11-17 02:00:00 22.1 8 Nordeste 13 Sur 0 1011.7 -- 33
2020-11-17 01:00:00 22.7 7 Nordeste 17 Nordeste 0 1012 -- 33
2020-11-17 00:00:00 22.3 17 Nordeste 22 Este 0 1012.6 -- 37
2020-11-16 23:00:00 22.1 14 Nordeste 17 Este 0 1012.7 -- 40
2020-11-16 22:00:00 22.6 5 Este 17 Nordeste 0 1012.8 -- 41
2020-11-16 21:00:00 22.2 13 Nordeste 17 Este 0 1012.8 -- 63
2020-11-16 20:00:00 22.9 13 Nordeste 17 Este 0 1012.4 -- 64
2020-11-16 19:00:00 24.1 11 Este 15 Este 0 1011.8 -- 72
2020-11-16 18:00:00 26.7 10 Nordeste 18 Este 0 1011.6 -- 52
2020-11-16 17:00:00 27.4 15 Este 18 Este 0 1011.7 -- 57
2020-11-16 16:00:00 28.8 14 Este 22 Este 0 1011.6 -- 46
2020-11-16 15:00:00 27 13 Este 21 Sudeste 0 1011.8 -- 61
2020-11-16 14:00:00 30.4 12 Sudeste 18 Sudeste 0 1011.9 -- 40
2020-11-16 13:00:00 30.1 12 Sudeste 18 Sudeste 0 1012.5 -- 40
2020-11-16 12:00:00 30 10 Sudeste 18 Este 0 1013.3 -- 39
2020-11-16 11:00:00 27.9 14 Este 21 Este 0 1013.7 -- 48
2020-11-16 10:00:00 25.7 18 Nordeste 22 Este 0 1013.4 -- 59
2020-11-16 09:00:00 22.5 12 Nordeste 17 Nordeste 0 1012.7 -- 59
2020-11-16 08:00:00 21.1 14 Nordeste 17 Nordeste 0 1012 -- 68
2020-11-16 07:00:00 20.9 12 Norte 17 Nordeste 0 1011.6 -- 73
2020-11-16 06:00:00 20.6 14 Nordeste 18 Nordeste 0 1011.2 -- 80
2020-11-16 05:00:00 20.6 12 Nordeste 21 Nordeste 0 1011 -- 82
2020-11-16 04:00:00 20.8 13 Nordeste 21 Nordeste 0 1011.1 -- 86
2020-11-16 03:00:00 20.6 13 Nordeste 24 Nordeste 0 1011 -- 84
2020-11-16 02:00:00 19.3 12 Nordeste 15 Nordeste 0 1011.7 -- 92
2020-11-16 01:00:00 19.4 6 Nordeste -- -- -- 1011.5 -- 93
2020-11-16 00:00:00 19.8 0 Calma 5 Norte 0 1011.8 -- 92
2020-11-15 23:00:00 20.9 3 Nordeste 15 Sudeste 0 1011.8 -- 92
2020-11-15 22:00:00 21.1 7 Nordeste 13 Este 0 1011.8 -- 93
2020-11-15 21:00:00 21.7 8 Este 26 Sudoeste 0 1011.4 -- 81
2020-11-15 20:00:00 22.4 19 Sudoeste 32 Oeste 0 1010.6 -- 79
2020-11-15 19:00:00 22.6 29 Oeste 37 Oeste 0 1009.8 -- 83
2020-11-15 18:00:00 23.9 26 Sudoeste 35 Oeste 0 1009.1 -- 75
2020-11-15 17:00:00 25.8 24 Sudoeste 37 Oeste 0 1009.1 -- 63
2020-11-15 16:00:00 27 26 Sudoeste 35 Sudoeste 0 1008.8 -- 57
2020-11-15 15:00:00 26.1 25 Sudoeste 35 Oeste 0 1009 -- 68
2020-11-15 14:00:00 27.8 28 Sudoeste 41 Oeste 0 1009.2 -- 58
2020-11-15 13:00:00 29.2 30 Oeste 42 Oeste 0 1009.5 -- 45
2020-11-15 12:00:00 28.8 27 Oeste 45 Oeste 0 1009.8 -- 43
2020-11-15 11:00:00 26.7 33 Oeste 42 Oeste 0 1010.2 -- 64
2020-11-15 10:00:00 25.8 32 Oeste 45 Oeste 0 1010.1 -- 65
2020-11-15 09:00:00 23 27 Oeste 35 Oeste 0 1009.3 -- 76
2020-11-15 08:00:00 21 23 Sudoeste 32 Oeste 0 1008.8 -- 84
2020-11-15 07:00:00 20.9 26 Oeste 35 Oeste 0 1008 -- 82
2020-11-15 06:00:00 20.8 25 Oeste 39 Oeste 0 1007.5 -- 90
2020-11-15 05:00:00 20.9 22 Sudoeste 32 Sudoeste 0 1007.2 -- 86
2020-11-15 04:00:00 21 25 Sudoeste 39 Oeste 0 1007 -- 90
2020-11-15 03:00:00 21.1 31 Oeste 41 Oeste 0 1007.6 -- 92
2020-11-15 02:00:00 21.2 27 Oeste 35 Oeste 0 1008 -- 90
2020-11-15 01:00:00 21.1 26 Oeste -- -- -- 1008.1 -- 90
2020-11-15 00:00:00 21.5 30 Oeste 41 Oeste 0 1008.2 -- 89
2020-11-14 23:00:00 21.5 27 Oeste 39 Oeste 0 1008.5 -- 92
2020-11-14 22:00:00 21.7 30 Sudoeste 41 Oeste 0 1008.7 -- 90
2020-11-14 21:00:00 21.9 25 Sudoeste 33 Oeste 0 1008.7 -- 89
2020-11-14 20:00:00 21.9 28 Oeste 39 Oeste 0 1008.1 -- 90
2020-11-14 19:00:00 22.3 27 Sudoeste 39 Oeste 0 1007.6 -- 87
2020-11-14 18:00:00 23 27 Sudoeste 41 Oeste 0 1007.5 -- 82
2020-11-14 17:00:00 24.1 29 Sudoeste 42 Oeste 0 1007.3 -- 75
2020-11-14 16:00:00 25 32 Sudoeste 48 Oeste 0 1007.3 -- 72
2020-11-14 15:00:00 26.5 32 Sudoeste 42 Oeste 0 1006.8 -- 69
2020-11-14 14:00:00 24.4 33 Sudoeste 42 Sudoeste 0 1007.4 -- 80
2020-11-14 13:00:00 25.2 31 Sudoeste 45 Sudoeste 0 1008.2 -- 77
2020-11-14 12:00:00 25 28 Oeste 37 Oeste 0 1009.1 -- 74
2020-11-14 11:00:00 25.1 31 Oeste 41 Oeste 0 1009.2 -- 71
2020-11-14 10:00:00 24.7 23 Oeste 33 Oeste 0 1008.9 -- 74
2020-11-14 09:00:00 22.6 15 Oeste 21 Oeste 0 1008.2 -- 65
2020-11-14 08:00:00 21.5 10 Oeste 17 Oeste 0 1007.4 -- 68
2020-11-14 07:00:00 21.1 13 Oeste 15 Oeste 0 1007.2 -- 74
2020-11-14 06:00:00 20.8 9 Oeste 13 Oeste 0 1006.9 -- 65
2020-11-14 05:00:00 20.2 6 Noroeste 11 Noroeste 0 1006.5 -- 62
2020-11-14 04:00:00 20.9 5 Noroeste 11 Noroeste 0 1007 -- 70
2020-11-14 03:00:00 21.5 5 Norte 15 Norte 0 1007.5 -- 72
2020-11-14 02:00:00 21 4 Nordeste 11 Norte 0 1007.9 -- 63
2020-11-14 01:00:00 21.6 0 Calma -- -- -- 1008.3 -- 59
2020-11-14 00:00:00 22 4 Norte 9 Noroeste 0 1008.7 -- 53
2020-11-13 23:00:00 23.1 0 Calma 11 Nordeste 0 1009.3 -- 48
2020-11-13 22:00:00 23.4 4 Norte 11 Oeste 0 1009.6 -- 50
2020-11-13 21:00:00 23.5 6 Sudoeste 13 Norte 0 1009.5 -- 41
2020-11-13 20:00:00 23.2 5 Norte 17 Noroeste 0 1008.6 -- 43
2020-11-13 19:00:00 23.8 6 Noroeste 13 Nordeste 0 1008.3 -- 46
2020-11-13 18:00:00 24.8 2 Nordeste 21 Nordeste 0 1007.9 -- 43
2020-11-13 17:00:00 25.6 5 Nordeste 11 Nordeste 0 1008.3 -- 40
2020-11-13 16:00:00 25.9 6 Este 21 Nordeste 0 1008.2 -- 43
2020-11-13 15:00:00 25.8 8 Nordeste 24 Nordeste 0 1008.2 -- 47
2020-11-13 14:00:00 24.3 9 Nordeste 18 Este 0 1008.5 -- 57
2020-11-13 13:00:00 22.5 14 Este 18 Este 0 1009.3 -- 85
2020-11-13 12:00:00 22.4 12 Este 22 Este 0 1010.1 -- 85
2020-11-13 11:00:00 22.1 14 Este 18 Este 0 1011 -- 86
2020-11-13 10:00:00 21.7 10 Nordeste 15 Nordeste 0 1010.8 -- 86
2020-11-13 09:00:00 20.8 9 Nordeste 11 Nordeste 0 1010.3 -- 86
2020-11-13 08:00:00 20.2 5 Noroeste 9 Oeste 0 1010.1 -- 86
2020-11-13 07:00:00 19.8 8 Noroeste 9 Noroeste 0 1009.7 -- 83
2020-11-13 06:00:00 20.2 6 Norte 15 Este 0 1009 -- 89
2020-11-13 05:00:00 20.7 11 Este 18 Nordeste 0 1008.3 -- 90
2020-11-13 04:00:00 20.4 13 Este 18 Nordeste 0 1008 -- 89
2020-11-13 03:00:00 20.7 16 Nordeste 24 Este 0 1008.6 -- 90
2020-11-13 02:00:00 20.4 15 Este 22 Nordeste 0 1008.6 -- 87
2020-11-13 01:00:00 20.6 14 Nordeste 24 Este 0 1009 -- 87
2020-11-13 00:00:00 20.9 18 Nordeste 28 Este 0 1008.9 -- 85
2020-11-12 23:00:00 21.1 16 Nordeste 26 Nordeste 0 1009.3 -- 86
2020-11-12 22:00:00 21.4 17 Nordeste -- -- -- 1009.5 -- 85
2020-11-12 21:00:00 21.7 10 Nordeste 18 Nordeste 0 1009.8 -- 83
2020-11-12 20:00:00 22 12 Nordeste 17 Nordeste 0 1009.4 -- 81
2020-11-12 19:00:00 22.2 11 Este 13 Este 0 1008.7 -- 81
2020-11-12 18:00:00 22.6 8 Este 15 Este 0 1008.5 -- 78
2020-11-12 17:00:00 23 12 Este 21 Este 0 1008.2 -- 76
2020-11-12 16:00:00 23 13 Este 18 Este 0 1007.8 -- 76
2020-11-12 15:00:00 23.1 11 Este 18 Sudeste 0 1007.8 -- 74
2020-11-12 14:00:00 24.2 14 Este 28 Este 0 1008.5 -- 69
2020-11-12 13:00:00 24 18 Este 28 Este 0 1008.8 -- 70
2020-11-12 12:00:00 24.2 18 Este 26 Este 0 1009.6 -- 69
2020-11-12 11:00:00 22.7 17 Este 30 Nordeste 0 1010.3 -- 73
2020-11-12 10:00:00 22.3 19 Este 30 Nordeste 0 1009.9 -- 75
2020-11-12 09:00:00 21.4 17 Nordeste 26 Nordeste 0 1009.6 -- 78
2020-11-12 08:00:00 19.9 14 Nordeste 22 Nordeste 0 1009 -- 82
2020-11-12 07:00:00 19.6 15 Nordeste 21 Nordeste 0 1008.2 -- 80
2020-11-12 06:00:00 19.3 12 Nordeste 13 Nordeste 0 1008.2 -- 83
2020-11-12 05:00:00 20.1 12 Nordeste 18 Nordeste 0 1008.2 -- 80
2020-11-12 04:00:00 20.5 12 Norte 30 Este 0 1008.5 -- 79
2020-11-12 03:00:00 20.6 15 Nordeste 32 Nordeste 0 1008.5 -- 78
2020-11-12 02:00:00 20.5 19 Nordeste 28 Nordeste 0 1008.4 -- 78
2020-11-12 01:00:00 20.7 16 Nordeste 26 Nordeste 0 1009.7 -- 78
2020-11-12 00:00:00 20.9 13 Nordeste 30 Nordeste 0 1010.3 -- 77
2020-11-11 23:00:00 21 24 Nordeste 33 Nordeste 0 1010.2 -- 76
2020-11-11 22:00:00 21.1 17 Nordeste 24 Este 0 1010.7 -- 77
2020-11-11 21:00:00 21.2 14 Nordeste 21 Nordeste 0 1010.5 -- 77
2020-11-11 20:00:00 21.2 9 Nordeste 28 Nordeste 0 1010.2 -- 76
2020-11-11 19:00:00 21.1 19 Nordeste 30 Nordeste 0 1009.1 -- 76
2020-11-11 18:00:00 21.7 21 Este 30 Este 0 1008.5 -- 74
2020-11-11 17:00:00 22.4 20 Este 32 Este 0 1008.5 -- 71
2020-11-11 16:00:00 22.6 24 Este 32 Este 0 1008.3 -- 69
2020-11-11 15:00:00 23.7 20 Este 28 Este 0 1008.7 -- 66
2020-11-11 14:00:00 23.6 19 Este 26 Este 0 1008.9 -- 65
2020-11-11 13:00:00 23.2 20 Este 33 Este 0 1009.3 -- 65
2020-11-11 12:00:00 23.5 23 Este 32 Este 0 1009.9 -- 65
2020-11-11 11:00:00 22.9 19 Este 30 Nordeste 0 1010.3 -- 65
2020-11-11 10:00:00 22.2 12 Nordeste 24 Este 0 1010.6 -- 67
2020-11-11 09:00:00 21.9 17 Nordeste 24 Nordeste 0 1010.3 -- 67
2020-11-11 08:00:00 19 9 Nordeste 17 Nordeste 0 1009.7 -- 78
2020-11-11 07:00:00 20 7 Noroeste 26 Nordeste 0 1009.5 -- 74
2020-11-11 06:00:00 19.8 19 Nordeste 32 Nordeste 0 1008.5 -- 74
2020-11-11 05:00:00 19.9 24 Nordeste 33 Nordeste 0 1008.6 -- 73
2020-11-11 04:00:00 19.4 22 Nordeste 32 Nordeste 0 1008.5 -- 74
2020-11-11 03:00:00 18.7 17 Nordeste 22 Nordeste 0 1009 -- 76
2020-11-11 02:00:00 19.3 13 Norte 21 Nordeste 0 1009.8 -- 71
2020-11-11 01:00:00 19.2 11 Norte 21 Norte 0 1010.5 -- 72
2020-11-11 00:00:00 19.2 11 Norte 18 Nordeste 0 1011 -- 71
2020-11-10 23:00:00 19.5 11 Norte 18 Nordeste 0 1011.3 -- 71
2020-11-10 22:00:00 19.9 13 Norte 24 Nordeste 0 1011.2 -- 71
2020-11-10 21:00:00 20.4 15 Nordeste 28 Nordeste 0 1011.1 -- 68
2020-11-10 20:00:00 20.5 14 Norte 28 Nordeste 0 1011.1 -- 69
2020-11-10 19:00:00 20.9 20 Nordeste 35 Nordeste 0 1010.1 -- 68
2020-11-10 18:00:00 21.7 23 Nordeste 39 Nordeste 0 1009.4 -- 63
2020-11-10 17:00:00 23.1 29 Este 42 Este 0 1009.4 -- 58
2020-11-10 16:00:00 23.7 28 Este 45 Este 0 1009.5 -- 58
2020-11-10 15:00:00 24.4 30 Este 52 Nordeste 0 1009.7 -- 54
2020-11-10 14:00:00 24.2 37 Este 54 Este 0 1009.9 -- 55
2020-11-10 13:00:00 24.5 42 Este 55 Este 0 1010.7 -- 55
2020-11-10 12:00:00 24.5 40 Nordeste 52 Nordeste 0 1011.7 -- 55
2020-11-10 11:00:00 24 35 Nordeste 52 Nordeste 0 1012.3 -- 54
2020-11-10 10:00:00 23.1 36 Este 48 Nordeste 0 1012.1 -- 59
2020-11-10 09:00:00 21.1 34 Nordeste 50 Nordeste 0 1011.9 -- 71
2020-11-10 08:00:00 20 27 Nordeste 39 Nordeste 0 1011.5 -- 72
2020-11-10 07:00:00 19.6 25 Nordeste 37 Nordeste 0 1011.7 -- 74
2020-11-10 06:00:00 19.9 22 Nordeste 35 Nordeste 0 1011.6 -- 75
2020-11-10 05:00:00 20.2 15 Norte 33 Nordeste 0 1011.5 -- 75
2020-11-10 04:00:00 20.4 19 Nordeste 42 Este 0 1011.2 -- 76
2020-11-10 03:00:00 20.8 36 Nordeste 48 Nordeste 0 1010.6 -- 74
2020-11-10 02:00:00 20.7 33 Nordeste 50 Nordeste 0 1011.1 -- 76
2020-11-10 01:00:00 20.3 34 Nordeste 52 Nordeste 0 1011.3 -- 76
2020-11-10 00:00:00 20.1 19 Nordeste 30 Nordeste 0 1012.7 -- 76
2020-11-09 23:00:00 20.3 21 Nordeste 35 Nordeste 0 1013.3 -- 75
2020-11-09 22:00:00 20.6 24 Nordeste 45 Nordeste 0 1013.2 -- 75
2020-11-09 21:00:00 20.9 26 Nordeste 37 Nordeste 0 1013.1 -- 76
2020-11-09 20:00:00 20.9 22 Nordeste 35 Nordeste 0 1012.8 -- 74
2020-11-09 19:00:00 21.3 22 Nordeste 37 Nordeste 0 1012.7 -- 71
2020-11-09 18:00:00 22.2 26 Nordeste 41 Este 0 1012.4 -- 67
2020-11-09 17:00:00 23.4 30 Nordeste 42 Nordeste 0 1012.2 -- 62
2020-11-09 16:00:00 24.4 30 Este 48 Este 0 1011.8 -- 60
2020-11-09 15:00:00 24.8 31 Este 45 Este 0 1012.2 -- 59
2020-11-09 14:00:00 24.8 33 Este 46 Este 0 1012.3 -- 57
2020-11-09 13:00:00 24.7 29 Este 46 Este 0 1013.2 -- 57
2020-11-09 12:00:00 24.3 33 Este 46 Este 0 1014 -- 59
2020-11-09 11:00:00 24.1 30 Nordeste 45 Este 0 1014.5 -- 58
2020-11-09 10:00:00 23.5 25 Este 37 Nordeste 0 1014.5 -- 58
2020-11-09 09:00:00 21.8 21 Nordeste 32 Nordeste 0 1014 -- 62
2020-11-09 08:00:00 19 13 Norte 21 Norte 0 1013.4 -- 62
2020-11-09 07:00:00 18.6 14 Norte 21 Norte 0 1013 -- 64
2020-11-09 06:00:00 18.8 15 Norte 22 Nordeste 0 1012.8 -- 67
2020-11-09 05:00:00 18.6 15 Nordeste 21 Norte 0 1012.8 -- 63
2020-11-09 04:00:00 18.6 16 Nordeste 28 Norte 0 1013 -- 66
2020-11-09 03:00:00 19.2 18 Norte 24 Nordeste 0 1013.3 -- 63
2020-11-09 02:00:00 19.5 16 Norte 21 Norte 0 1013.6 -- 64
2020-11-09 01:00:00 19.5 15 Norte 21 Norte 0 1013.7 -- 70
2020-11-09 00:00:00 19.7 13 Nordeste 21 Nordeste 0 1014 -- 70
2020-11-08 23:00:00 20.4 14 Nordeste 21 Nordeste 0 1014.4 -- 69
2020-11-08 22:00:00 21.1 15 Nordeste 28 Este 0 1014.4 -- 66
2020-11-08 21:00:00 21.5 18 Este 28 Este 0 1014.1 -- 67
2020-11-08 20:00:00 21.7 16 Este 24 Este 0 1013.7 -- 68
2020-11-08 19:00:00 21.7 14 Este 28 Este 0 1013.3 -- 68
2020-11-08 18:00:00 22.2 19 Este 30 Este 0 1012.8 -- 65
2020-11-08 17:00:00 23.5 20 Este 30 Este 0 1012.6 -- 61
2020-11-08 16:00:00 23.9 21 Este 30 Este 0 1012.6 -- 57
2020-11-08 15:00:00 24 19 Este 33 Este 0 1012.6 -- 57
2020-11-08 14:00:00 24.7 21 Este 30 Este 0 1012.8 -- 55
2020-11-08 13:00:00 24.3 20 Este 28 Este 0 1013.4 -- 59
2020-11-08 12:00:00 23.9 15 Este 26 Este 0 1014 -- 57
2020-11-08 11:00:00 23.4 13 Este 22 Este 0 1014.6 -- 64
2020-11-08 10:00:00 22.9 12 Este 18 Este 0 1014.3 -- 68
2020-11-08 09:00:00 21.8 10 Nordeste 13 Nordeste 0 1014.1 -- 65
2020-11-08 08:00:00 18.2 12 Norte 15 Norte 0 1013.4 -- 68
2020-11-08 07:00:00 16.7 12 Norte 13 Norte 0 1013 -- 71
2020-11-08 06:00:00 16.5 10 Norte -- -- 0 1012.6 -- 74
2020-11-08 05:00:00 17.1 10 Norte 15 Norte 0 1012.4 -- 78
2020-11-08 04:00:00 17.4 13 Noroeste 15 Noroeste 0 1012.6 -- 79
2020-11-08 03:00:00 17.8 9 Norte 15 Norte 0 1012.8 -- 75
2020-11-08 02:00:00 18.4 13 Norte 15 Norte 0 1013.2 -- 76
2020-11-08 01:00:00 18.3 11 Norte 13 Norte 0 1013.3 -- 75
2020-11-08 00:00:00 19.2 13 Norte 15 Norte 0 1013.4 -- 73
2020-11-07 23:00:00 19.8 12 Norte 15 Norte 0 1013.4 -- 71
2020-11-07 22:00:00 20.4 10 Norte 17 Norte 0 1013.2 -- 69
2020-11-07 21:00:00 20.4 5 Norte 13 Nordeste 0 1013 -- 68
2020-11-07 20:00:00 20.8 9 Nordeste 17 Sudoeste 0 1012.7 -- 66
2020-11-07 19:00:00 21.6 13 Sudoeste 21 Sudoeste 0 1011.8 -- 62
2020-11-07 18:00:00 23 14 Sudoeste 24 Sudoeste 0 1011.6 -- 55
2020-11-07 17:00:00 23.6 18 Sur 28 Sudoeste 0 1011.3 -- 60
2020-11-07 16:00:00 23.9 21 Sur 28 Sudoeste 0 1010.9 -- 61
2020-11-07 15:00:00 23.7 14 Sur 22 Sudoeste 0 1011.1 -- 64
2020-11-07 14:00:00 23.4 13 Sudeste 26 Este 0 1011.5 -- 69
2020-11-07 13:00:00 24.3 17 Este 28 Este 0 1012.2 -- 66
2020-11-07 12:00:00 23.7 17 Este 26 Este 0 1012.8 -- 66
2020-11-07 11:00:00 23.6 16 Este 22 Este 0 1013 -- 64
2020-11-07 10:00:00 22.7 12 Este 18 Este 0 1012.8 -- 68
2020-11-07 09:00:00 21.2 11 Nordeste 18 Norte 0 1012.1 -- 68
2020-11-07 08:00:00 19.3 13 Norte 18 Norte 0 1011.2 -- 69
2020-11-07 07:00:00 18.2 15 Norte 18 Norte 0 1010.4 -- 75
2020-11-07 06:00:00 17.9 14 Norte 18 Norte 0 1009.8 -- 74
2020-11-07 05:00:00 18.3 15 Norte 18 Norte 0 1009.6 -- 73
2020-11-07 04:00:00 18.5 15 Norte 21 Norte 0 1009.6 -- 72
2020-11-07 03:00:00 19 15 Norte 21 Norte 0 1009.3 -- 71
2020-11-07 02:00:00 18.8 15 Norte 18 Norte 0 1009.3 -- 69
2020-11-07 01:00:00 18.8 12 Norte 15 Norte 0 1009.2 -- 69
2020-11-07 00:00:00 19.3 12 Norte 18 Norte 0 1009.2 -- 72
2020-11-06 23:00:00 20.1 12 Norte 18 Norte 0 1009.2 -- 71
2020-11-06 22:00:00 20.6 13 Norte 21 Nordeste 0 1008.9 -- 69
2020-11-06 21:00:00 21.2 13 Nordeste 22 Nordeste 0 1008.3 -- 71
2020-11-06 20:00:00 21.7 11 Nordeste 21 Nordeste 0 1007.7 -- 68
2020-11-06 19:00:00 22.3 11 Este 22 Este 0 1006.8 -- 68
2020-11-06 18:00:00 23.5 15 Este 26 Este 0 1006 -- 63
2020-11-06 17:00:00 25 24 Nordeste 37 Noroeste 0 1005.1 -- 58
2020-11-06 16:00:00 27 26 Oeste 54 Oeste 0 1004.3 -- 29
2020-11-06 15:00:00 27.2 40 Oeste 55 Oeste 0 1003.7 -- 33
2020-11-06 14:00:00 27.2 35 Oeste 48 Oeste 0 1003.7 -- 38
2020-11-06 13:00:00 25.8 39 Oeste 54 Oeste 0 1004 -- 48
2020-11-06 12:00:00 25 37 Oeste 52 Oeste 0 1004.6 -- 50
2020-11-06 11:00:00 24.2 32 Oeste 48 Oeste 0 1004.7 -- 54
2020-11-06 10:00:00 21.8 27 Sudoeste 45 Oeste 0 1004.2 2.5 72
2020-11-06 09:00:00 19.8 31 Oeste 46 Oeste 0.5 1003.2 -- 84
2020-11-06 08:00:00 19.2 23 Oeste 45 Oeste 0.8 1002.6 -- 85
2020-11-06 07:00:00 18.8 16 Oeste 24 Oeste 0 1001.7 -- 81
2020-11-06 06:00:00 18.7 18 Oeste 35 Oeste 2.1 1001.5 -- 85
2020-11-06 05:00:00 19.1 27 Oeste 46 Oeste 1.6 1001.2 -- 83
2020-11-06 04:00:00 18.8 22 Oeste 41 Oeste 2.7 1001.1 -- 87
2020-11-06 03:00:00 19.4 21 Oeste 32 Oeste 0 1001.3 -- 77
2020-11-06 02:00:00 18.8 22 Oeste 35 Oeste 0.1 1001.4 -- 84
2020-11-06 01:00:00 19.6 18 Oeste 33 Oeste 0.1 1001.4 -- 76
2020-11-06 00:00:00 19.7 13 Oeste 24 Oeste 0 1001.6 -- 73
2020-11-05 23:00:00 20.1 13 Oeste 24 Oeste 0 1001.9 -- 62
2020-11-05 22:00:00 19.8 18 Oeste 26 Oeste 0 1001.8 -- 66
2020-11-05 21:00:00 20.2 19 Oeste 28 Oeste 0 1001.6 -- 64
2020-11-05 20:00:00 20.5 23 Oeste 33 Oeste 0 1001.3 -- 64
2020-11-05 19:00:00 21 28 Oeste 42 Oeste 0 1000.6 -- 60
2020-11-05 18:00:00 22.1 33 Oeste 48 Oeste 0 1000.2 -- 54
2020-11-05 17:00:00 23.8 35 Oeste 48 Oeste 0 999.7 -- 46
2020-11-05 16:00:00 23.8 33 Oeste 46 Oeste 0 999.8 -- 48
2020-11-05 15:00:00 23.7 33 Sudoeste 46 Oeste 0 999.9 -- 51
2020-11-05 14:00:00 24.4 32 Sudoeste 46 Oeste 0 1000.4 -- 50
2020-11-05 13:00:00 24.9 31 Sudoeste 46 Oeste 0 1000.8 -- 41
2020-11-05 12:00:00 24.8 33 Oeste 46 Oeste 0 1001.6 -- 43
2020-11-05 11:00:00 24.3 28 Oeste 37 Oeste 0 1002.3 -- 43
2020-11-05 10:00:00 22.8 12 Sudoeste 18 Sudoeste 0 1002.5 -- 46
2020-11-05 09:00:00 20.8 8 Norte 15 Norte 0 1002.6 -- 61
2020-11-05 08:00:00 17.1 9 Norte 13 Norte 0 1002.1 -- 76
2020-11-05 07:00:00 18 3 Oeste 13 Sudoeste 0 1002.3 -- 77
2020-11-05 06:00:00 18.9 10 Sudoeste 15 Sudoeste 0 1002.5 -- 76
2020-11-05 05:00:00 19.4 4 Sudoeste 11 Noroeste 0 1002.6 -- 73
2020-11-05 04:00:00 19.4 3 Este 11 Nordeste 0 1003.1 -- 72
2020-11-05 03:00:00 19.2 8 Nordeste 9 Nordeste 0 1003.5 -- 72
2020-11-05 02:00:00 19 8 Norte 21 Norte 0 1004.4 -- 74
2020-11-05 01:00:00 19.4 17 Norte 30 Nordeste 0 1005.2 -- 73
2020-11-05 00:00:00 19.8 19 Nordeste 26 Nordeste 0 1005.8 -- 70
2020-11-04 23:00:00 19.7 15 Nordeste 30 Nordeste 0 1006.4 -- 74
2020-11-04 22:00:00 20 18 Nordeste 28 Nordeste 0 1006.9 -- 74
2020-11-04 21:00:00 19.8 19 Nordeste 30 Nordeste 0 1007.1 -- 76
2020-11-04 20:00:00 19.5 24 Nordeste 45 Nordeste 0 1007.1 -- 82
2020-11-04 19:00:00 20.3 27 Nordeste 42 Nordeste 0 1007.1 -- 79
2020-11-04 18:00:00 20.8 33 Nordeste 46 Nordeste 0 1007.2 -- 76
2020-11-04 17:00:00 22.4 36 Nordeste 52 Nordeste 0 1007 -- 69
2020-11-04 16:00:00 22.7 27 Nordeste 42 Nordeste 0 1007.6 -- 69
2020-11-04 15:00:00 22.9 31 Nordeste 46 Nordeste 0 1007.9 -- 66
2020-11-04 14:00:00 22.9 33 Nordeste 52 Nordeste 0 1008.5 -- 67
2020-11-04 13:00:00 24.2 35 Nordeste 55 Nordeste 0 1009.3 -- 62
2020-11-04 12:00:00 24.5 38 Nordeste 55 Nordeste 0 1010.2 -- 62
2020-11-04 11:00:00 22.8 38 Nordeste 54 Nordeste 0 1011.1 -- 71
2020-11-04 10:00:00 22.7 40 Nordeste 54 Nordeste 0 1011 0.6 69
2020-11-04 09:00:00 22 38 Nordeste 55 Nordeste 0 1010.8 -- 71
2020-11-04 08:00:00 21.5 43 Nordeste 58 Nordeste 0 1010.5 -- 74
2020-11-04 07:00:00 21.1 40 Nordeste 54 Nordeste 0 1010.4 -- 75
2020-11-04 06:00:00 21.1 35 Nordeste 55 Nordeste 0 1010.6 -- 77
2020-11-04 05:00:00 21.1 33 Nordeste 52 Nordeste 0 1010.6 -- 74
2020-11-04 04:00:00 21.3 31 Nordeste 48 Nordeste 0 1011.4 -- 77
2020-11-04 03:00:00 21.1 31 Nordeste 50 Nordeste 0 1011.4 -- 77
2020-11-04 02:00:00 21.4 41 Nordeste 58 Nordeste 0 1011.7 -- 72
2020-11-04 01:00:00 21.3 33 Nordeste 54 Nordeste 0 1012.2 -- 71
2020-11-04 00:00:00 21.4 41 Nordeste 65 Nordeste 0 1011.8 -- 73
2020-11-03 23:00:00 21.5 44 Nordeste 67 Nordeste 0 1011.2 -- 73
2020-11-03 22:00:00 21.6 42 Nordeste 58 Este 0 1012.2 -- 73
2020-11-03 21:00:00 21.7 36 Nordeste 67 Nordeste 0 1012.3 -- 75
2020-11-03 20:00:00 21.9 41 Nordeste 61 Nordeste 0 1011.2 -- 71
2020-11-03 19:00:00 22.3 43 Nordeste 58 Nordeste 0 1011.4 -- 71
2020-11-03 18:00:00 22.8 31 Nordeste 50 Nordeste 0 1011.9 -- 69
2020-11-03 17:00:00 24.5 36 Este 52 Nordeste 0 1012.1 -- 63
2020-11-03 16:00:00 25.4 38 Nordeste 54 Nordeste 0 1012.1 -- 60
2020-11-03 15:00:00 25.8 39 Este 59 Este 0 1012.4 -- 55
2020-11-03 14:00:00 26 39 Este 61 Nordeste 0 1012.5 -- 58
2020-11-03 13:00:00 25.6 40 Este 59 Este 0 1012.7 -- 58
2020-11-03 12:00:00 25.4 42 Este 59 Este 0 1013.5 -- 59
2020-11-03 11:00:00 25.4 37 Este 52 Nordeste 0 1014 -- 59
2020-11-03 10:00:00 24.7 38 Nordeste 61 Nordeste 0 1013.7 -- 59
2020-11-03 09:00:00 23.6 33 Nordeste 50 Nordeste 0 1013.3 -- 60
2020-11-03 08:00:00 21.8 28 Nordeste 37 Nordeste 0 1012.5 -- 70
2020-11-03 07:00:00 21.1 27 Nordeste 39 Nordeste 0 1012.2 -- 66
2020-11-03 06:00:00 20.8 16 Nordeste 30 Nordeste 0 1011.8 -- 75
2020-11-03 05:00:00 20.9 12 Norte 41 Nordeste 0 1012.2 -- 76
2020-11-03 04:00:00 21.4 26 Nordeste 35 Nordeste 0 1012.1 -- 76
2020-11-03 03:00:00 21.5 23 Nordeste 37 Nordeste 0 1012.5 -- 75
2020-11-03 02:00:00 21.7 24 Nordeste 37 Nordeste 0 1012.8 -- 68
2020-11-03 01:00:00 21.4 18 Nordeste 28 Nordeste 0 1013.1 -- 74
2020-11-03 00:00:00 21.2 15 Norte 32 Nordeste 0 1013.1 -- 68
2020-11-02 23:00:00 21.4 19 Nordeste 37 Nordeste 0 1013.4 -- 71
2020-11-02 22:00:00 21.8 19 Nordeste 30 Nordeste 0 1013.2 -- 67
2020-11-02 21:00:00 22.1 27 Nordeste 41 Nordeste 0 1012.9 -- 70
2020-11-02 20:00:00 22.3 28 Nordeste 45 Nordeste 0 1012.4 -- 73
2020-11-02 19:00:00 22.6 31 Nordeste 46 Nordeste 0 1012 -- 72
2020-11-02 18:00:00 23.3 32 Nordeste 48 Este 0 1011.6 -- 70
2020-11-02 17:00:00 24.4 39 Nordeste 55 Nordeste 0 1011.6 -- 65
2020-11-02 16:00:00 24.9 39 Nordeste 55 Este 0 1011.3 -- 60
2020-11-02 15:00:00 26.3 38 Nordeste 52 Este 0 1011.4 -- 53
2020-11-02 14:00:00 26.6 36 Nordeste 55 Este 0 1011.7 -- 56
2020-11-02 13:00:00 26.6 38 Nordeste 61 Nordeste 0 1012.2 -- 53
2020-11-02 12:00:00 26.4 39 Este 58 Nordeste 0 1012.5 -- 57
2020-11-02 11:00:00 25.3 37 Nordeste 59 Nordeste 0 1013 -- 62
2020-11-02 10:00:00 24.4 45 Nordeste 61 Nordeste 0 1012.4 -- 65
2020-11-02 09:00:00 23.3 43 Nordeste 54 Nordeste 0 1012.1 -- 71
2020-11-02 08:00:00 21.6 30 Nordeste 42 Nordeste 0 1011.4 -- 76
2020-11-02 07:00:00 21.1 24 Nordeste 41 Nordeste 0 1010.9 -- 73
2020-11-02 06:00:00 21.4 21 Nordeste 45 Nordeste 0 1010.6 -- 61
2020-11-02 05:00:00 21.9 39 Nordeste 52 Nordeste 0 1010.2 -- 57
2020-11-02 04:00:00 21.8 36 Nordeste 54 Nordeste 0 1010.2 -- 61
2020-11-02 03:00:00 21.7 37 Nordeste 48 Este 0 1010.5 -- 72
2020-11-02 02:00:00 22.7 34 Nordeste 52 Nordeste 0 1010.7 -- 45
2020-11-02 01:00:00 23.1 38 Nordeste 50 Nordeste 0 1011.1 -- 44
2020-11-02 00:00:00 23.4 30 Nordeste 45 Nordeste 0 1011.6 -- 40
2020-11-01 23:00:00 23.9 34 Nordeste 52 Nordeste 0 1011.7 -- 35
2020-11-01 22:00:00 24.2 42 Nordeste 54 Nordeste 0 1011.6 -- 36
2020-11-01 21:00:00 24 33 Nordeste 46 Nordeste 0 1011.6 -- 40
2020-11-01 20:00:00 24.5 30 Este 39 Este 0 1011.2 -- 38
2020-11-01 19:00:00 25.8 27 Nordeste 45 Nordeste 0 1010.9 -- 26
2020-11-01 18:00:00 27.4 32 Nordeste 48 Este 0 1010.7 -- 28
2020-11-01 17:00:00 29.9 31 Este 58 Nordeste 0 1010.8 -- 23
2020-11-01 16:00:00 31.2 44 Nordeste 58 Nordeste 0 1010.5 -- 19
2020-11-01 15:00:00 32.5 43 Nordeste 59 Nordeste 0 1010.4 -- 16
2020-11-01 14:00:00 32.3 40 Este 58 Nordeste 0 1011 -- 17
2020-11-01 13:00:00 32.4 39 Este 58 Este 0 1011.9 -- 17
2020-11-01 12:00:00 32.3 43 Nordeste 59 Nordeste 0 1012.7 -- 17
2020-11-01 11:00:00 31.8 40 Nordeste 52 Nordeste 0 1013.1 -- 19
2020-11-01 10:00:00 31.1 36 Nordeste 55 Nordeste 0 1013 -- 18
2020-11-01 09:00:00 30.1 36 Nordeste 48 Nordeste 0 1012.5 -- 17
2020-11-01 08:00:00 28.1 31 Nordeste 48 Nordeste 0 1011.8 -- 18
2020-11-01 07:00:00 27.3 35 Nordeste 48 Nordeste 0 1011.3 -- 20
2020-11-01 06:00:00 28 36 Nordeste 50 Nordeste 0 1011.1 -- 19
2020-11-01 05:00:00 24.8 32 Nordeste 45 Nordeste 0 1010.9 -- 25
2020-11-01 04:00:00 23.8 25 Este 32 Nordeste 0 1011.1 -- 27
2020-11-01 03:00:00 25.2 24 Nordeste 30 Nordeste 0 1011.5 -- 26
2020-11-01 02:00:00 24.2 21 Este 35 Nordeste 0 1012 -- 29
2020-11-01 01:00:00 23.2 25 Nordeste 32 Nordeste 0 1012.1 -- 42
2020-11-01 00:00:00 24.4 21 Este 33 Este 0 1012.5 -- 44
2020-10-31 23:00:00 26.6 19 Este 46 Nordeste 0 1012.3 -- 21
2020-10-31 22:00:00 27.9 30 Nordeste 45 Nordeste 0 1012.1 -- 19
2020-10-31 21:00:00 28.8 31 Nordeste 46 Nordeste 0 1011.7 -- 18
2020-10-31 20:00:00 29.4 35 Nordeste 54 Nordeste 0 1011.3 -- 17
2020-10-31 19:00:00 29.8 43 Nordeste 63 Nordeste 0 1011 -- 16
2020-10-31 18:00:00 30.2 40 Nordeste 58 Nordeste 0 1010.8 -- 16
2020-10-31 17:00:00 31.1 36 Este 54 Nordeste 0 1010.9 -- 19
2020-10-31 16:00:00 29.2 31 Este 52 Este 0 1010.9 -- 37
2020-10-31 15:00:00 29.3 37 Este 50 Este 0 1011.1 -- 36
2020-10-31 14:00:00 29 27 Este 41 Este 0 1011.8 -- 40
2020-10-31 13:00:00 28.5 28 Este 39 Este 0 1012.2 -- 39
2020-10-31 12:00:00 28.7 27 Este 37 Este 0 1012.8 -- 39
2020-10-31 11:00:00 31.2 22 Este 30 Este 0 1012.8 -- 29
2020-10-31 10:00:00 30.5 20 Nordeste 30 Nordeste 0 1012.6 -- 25
2020-10-31 09:00:00 28 18 Nordeste 32 Nordeste 0 1011.9 -- 25
2020-10-31 08:00:00 25.3 15 Nordeste 32 Nordeste 0 1011.4 -- 24
2020-10-31 07:00:00 25.1 17 Nordeste 33 Nordeste 0 1010.7 -- 22
2020-10-31 06:00:00 25.4 26 Nordeste 39 Nordeste 0 1010.1 -- 25
2020-10-31 05:00:00 25.3 23 Nordeste 37 Nordeste 0 1009.8 -- 22
2020-10-31 04:00:00 24.7 24 Nordeste 33 Nordeste 0 1009.7 -- 22
2020-10-31 03:00:00 24.6 20 Este 42 Nordeste 0 1009.7 -- 23
2020-10-31 02:00:00 24.9 28 Nordeste 37 Nordeste 0 1009.3 -- 22
2020-10-31 01:00:00 23.4 17 Este 35 Nordeste 0 1009.7 -- 27
2020-10-31 00:00:00 20.7 2 Sudeste 13 Noroeste 0 1010.3 -- 67
2020-10-30 23:00:00 20.5 12 Noroeste 15 Noroeste 0 1010.9 -- 81
2020-10-30 22:00:00 20.8 6 Oeste 15 Oeste 0 1010.6 -- 82
2020-10-30 21:00:00 21.5 4 Noroeste 22 Norte 0 1009.9 -- 78
2020-10-30 20:00:00 21.8 8 Nordeste 18 Nordeste 0 1009.9 -- 81
2020-10-30 19:00:00 22.6 10 Nordeste 24 Este 0 1009.1 -- 80
2020-10-30 18:00:00 23.6 18 Este 33 Este 0 1008.6 -- 76
2020-10-30 17:00:00 24.4 27 Este 37 Este 0 1008.5 -- 72
2020-10-30 16:00:00 25.1 30 Este 39 Este 0 1008.6 -- 68
2020-10-30 15:00:00 25.6 29 Este 42 Este 0 1008.4 -- 66
2020-10-30 14:00:00 25.8 31 Este 42 Este 0 1008.8 -- 65
2020-10-30 13:00:00 25.7 31 Este 42 Este 0 1009.5 -- 64
2020-10-30 12:00:00 25.7 28 Este 35 Este 0 1010.3 -- 62
2020-10-30 11:00:00 25.2 23 Este 30 Este 0 1010.7 -- 58
2020-10-30 10:00:00 24.4 12 Este 22 Este 0 1010.8 -- 62
2020-10-30 09:00:00 22.8 3 Noroeste 15 Norte 0 1010.5 -- 63
2020-10-30 08:00:00 19.1 13 Noroeste 17 Noroeste 0 1010.1 -- 68
2020-10-30 07:00:00 17.8 13 Noroeste 17 Noroeste 0 1009.4 -- 70
2020-10-30 06:00:00 19.3 12 Noroeste 18 Noroeste 0 1009.3 -- 71
2020-10-30 05:00:00 18.2 10 Norte 15 Norte 0 1009.2 -- 75
2020-10-30 04:00:00 18.3 11 Norte 22 Norte 0 1009.1 -- 73
2020-10-30 03:00:00 18.6 15 Norte 18 Norte 0 1009.5 -- 73
2020-10-30 02:00:00 19.8 5 Noroeste 15 Norte 0 1009.9 -- 72
2020-10-30 01:00:00 18.8 12 Norte 18 Norte 0 1010 -- 73
2020-10-30 00:00:00 19.6 12 Noroeste 21 Norte 0 1010.2 -- 72
2020-10-29 23:00:00 19.7 6 Norte 17 Norte 0 1010.5 -- 71
2020-10-29 22:00:00 20.2 8 Norte 13 Norte 0 1010.7 -- 70
2020-10-29 21:00:00 21.1 9 Nordeste 15 Nordeste 0 1010.5 -- 70
2020-10-29 20:00:00 21.3 10 Nordeste 26 Nordeste 0 1010.1 -- 72
2020-10-29 19:00:00 21.8 15 Nordeste 33 Nordeste 0 1009.7 -- 70
2020-10-29 18:00:00 22.5 28 Nordeste 39 Nordeste 0 1009.4 -- 68
2020-10-29 17:00:00 23.9 28 Este 41 Este 0 1009.3 -- 63
2020-10-29 16:00:00 24.6 29 Este 41 Este 0 1009.3 -- 57
2020-10-29 15:00:00 24.9 30 Este 42 Este 0 1009.4 -- 52
2020-10-29 14:00:00 25.3 30 Este 42 Este 0 1009.7 -- 51
2020-10-29 13:00:00 24.9 32 Este 42 Este 0 1010.7 -- 50
2020-10-29 12:00:00 25 29 Este 39 Este 0 1011.6 -- 49
2020-10-29 11:00:00 24.6 22 Este 37 Este 0 1012.2 -- 47
2020-10-29 10:00:00 23.9 27 Nordeste 39 Nordeste 0 1012.1 -- 50
2020-10-29 09:00:00 21.5 18 Nordeste 26 Nordeste 0 1011.9 -- 56
2020-10-29 08:00:00 20.8 20 Nordeste 33 Nordeste 0 1011.4 -- 56
2020-10-29 07:00:00 19.8 12 Nordeste 22 Nordeste 0 1011 -- 59
2020-10-29 06:00:00 19.6 14 Norte 22 Norte 0 1010.7 -- 61
2020-10-29 05:00:00 20.3 13 Norte 18 Norte 0 1010.7 -- 60
2020-10-29 04:00:00 20.2 14 Norte 26 Norte 0 1010.9 -- 59
2020-10-29 03:00:00 20.1 11 Norte 33 Nordeste 0 1011.1 -- 60
2020-10-29 02:00:00 20.7 18 Nordeste 24 Nordeste 0 1011.4 -- 59
2020-10-29 01:00:00 21 16 Nordeste 33 Nordeste 0 1011.7 -- 60
2020-10-29 00:00:00 21 18 Nordeste 28 Nordeste 0 1011.9 -- 61
2020-10-28 23:00:00 21.4 19 Nordeste 30 Nordeste 0 1012.2 -- 65
2020-10-28 22:00:00 21.2 24 Nordeste 33 Nordeste 0 1012.3 -- 68
2020-10-28 21:00:00 21.8 20 Nordeste 35 Nordeste 0 1012.2 -- 62
2020-10-28 20:00:00 21.6 30 Nordeste 45 Nordeste 0 1011.6 -- 60
2020-10-28 19:00:00 21.7 28 Nordeste 41 Nordeste 0 1011.5 -- 62
2020-10-28 18:00:00 22.2 27 Este 45 Nordeste 0 1011.1 -- 61
2020-10-28 17:00:00 23.5 36 Este 50 Nordeste 0 1010.7 -- 58
2020-10-28 16:00:00 23.7 35 Nordeste 50 Nordeste 0 1010.9 -- 56
2020-10-28 15:00:00 24.4 29 Este 46 Este 0 1011.2 -- 52
2020-10-28 14:00:00 24.9 33 Este 46 Nordeste 0 1011.8 -- 54
2020-10-28 13:00:00 24.3 37 Este 50 Este 0 1012.3 -- 56
2020-10-28 12:00:00 24 33 Este 45 Este 0 1012.9 -- 52
2020-10-28 11:00:00 23.2 28 Este 42 Este 0 1013.3 -- 54
2020-10-28 10:00:00 22.7 28 Nordeste 39 Nordeste 0 1013.1 -- 57
2020-10-28 09:00:00 22.2 29 Nordeste 41 Nordeste 0 1012.6 -- 56
2020-10-28 08:00:00 20.6 15 Nordeste 30 Nordeste 0 1012 -- 63
2020-10-28 07:00:00 20.7 21 Nordeste 32 Nordeste 0 1011.3 -- 65
2020-10-28 06:00:00 20.8 21 Nordeste 39 Nordeste 0 1011.1 -- 67
2020-10-28 05:00:00 21 19 Nordeste 32 Nordeste 0 1011 -- 66
2020-10-28 04:00:00 21.1 18 Nordeste 30 Nordeste 0 1010.9 -- 65
2020-10-28 03:00:00 20.9 14 Nordeste 26 Nordeste 0 1011.3 -- 67
2020-10-28 02:00:00 21 19 Nordeste 28 Nordeste 0 1011.6 -- 68
2020-10-28 01:00:00 20.9 19 Nordeste 30 Nordeste 0 1012.1 -- 68
2020-10-28 00:00:00 21.1 21 Nordeste 30 Nordeste 0 1012.7 -- 60
2020-10-27 23:00:00 20.8 17 Nordeste 32 Nordeste 0 1013.1 -- 64
2020-10-27 22:00:00 21.4 23 Nordeste 37 Nordeste 0 1012.7 -- 67
2020-10-27 21:00:00 21.7 28 Nordeste 39 Nordeste 0 1012.8 -- 66
2020-10-27 20:00:00 21.8 27 Nordeste 42 Nordeste 0 1012.5 -- 70
2020-10-27 19:00:00 21.9 31 Este 42 Este 0 1011.4 -- 70
2020-10-27 18:00:00 22.4 32 Nordeste 45 Nordeste 0 1011 -- 70
2020-10-27 17:00:00 23.4 29 Nordeste 46 Nordeste 0 1011 -- 63
2020-10-27 16:00:00 24.2 32 Este 52 Nordeste 0 1010.8 -- 60
2020-10-27 15:00:00 23.9 36 Este 48 Nordeste 0 1011.2 -- 60
2020-10-27 14:00:00 25.2 31 Este 50 Este 0 1011.4 -- 53
2020-10-27 13:00:00 25.1 35 Este 54 Este 0 1012 -- 54
2020-10-27 12:00:00 24.5 33 Este 52 Este 0 1013.1 -- 62
2020-10-27 11:00:00 24.9 36 Nordeste 50 Nordeste 0 1013.6 -- 62
2020-10-27 10:00:00 23.8 35 Nordeste 45 Nordeste 0 1013.5 -- 68
2020-10-27 09:00:00 21.8 14 Norte 24 Nordeste 0 1013.5 -- 67
2020-10-27 08:00:00 19.6 14 Nordeste 21 Nordeste 0 1012.6 -- 67
2020-10-27 07:00:00 19.1 12 Norte 18 Norte 0 1012.3 -- 67
2020-10-27 06:00:00 19.7 12 Norte 26 Norte 0 1012.1 -- 68
2020-10-27 05:00:00 19.7 13 Norte 21 Norte 0 1012.2 -- 71
2020-10-27 04:00:00 19.9 16 Norte 24 Norte 0 1012.2 -- 75
2020-10-27 03:00:00 19.6 13 Norte 18 Nordeste 0 1012.4 -- 69
2020-10-27 02:00:00 20.3 13 Norte 22 Norte 0 1012.7 -- 66
2020-10-27 01:00:00 20.4 14 Norte 22 Norte 0 1013.2 -- 66
2020-10-27 00:00:00 20.4 15 Norte 24 Nordeste 0 1013.6 -- 74
2020-10-26 23:00:00 20.6 14 Norte 22 Nordeste 0 1014.1 -- 71
2020-10-26 22:00:00 20.8 12 Norte 24 Nordeste 0 1014 -- 65
2020-10-26 21:00:00 21 14 Norte 35 Nordeste 0 1013.6 -- 66
2020-10-26 20:00:00 21.7 25 Nordeste 46 Nordeste 0 1013.3 -- 67
2020-10-26 19:00:00 21.9 31 Nordeste 50 Nordeste 0 1012.7 -- 68
2020-10-26 18:00:00 22.8 34 Nordeste 50 Nordeste 0 1012.2 -- 65
2020-10-26 17:00:00 24.2 35 Nordeste 50 Nordeste 0 1012.1 -- 58
2020-10-26 16:00:00 24.9 36 Este 50 Este 0 1012.2 -- 55
2020-10-26 15:00:00 25.7 32 Nordeste 52 Este 0 1012.2 -- 53
2020-10-26 14:00:00 25.8 34 Este 52 Este 0 1012.6 -- 52
2020-10-26 13:00:00 25.7 37 Nordeste 59 Este 0 1013.6 -- 52
2020-10-26 12:00:00 25.3 37 Nordeste 65 Este 0 1014.1 -- 52
2020-10-26 11:00:00 24.6 41 Nordeste 54 Este 0 1014.3 -- 53
2020-10-26 10:00:00 23.7 37 Nordeste 54 Nordeste 0 1014.7 -- 55
2020-10-26 09:00:00 22.4 40 Nordeste 52 Nordeste 0 1014.1 -- 59
2020-10-26 08:00:00 20.6 27 Nordeste 37 Nordeste 0 1013.4 -- 63
2020-10-26 07:00:00 19.9 19 Nordeste 32 Norte 0 1013.3 -- 66
2020-10-26 06:00:00 19.9 20 Nordeste 41 Nordeste 0 1013.1 -- 66
2020-10-26 05:00:00 20.3 30 Nordeste 45 Nordeste 0 1012.5 -- 65
2020-10-26 04:00:00 20.2 25 Nordeste 39 Nordeste 0 1013 -- 65
2020-10-26 03:00:00 19.9 26 Nordeste 37 Nordeste 0 1013.2 -- 66
2020-10-26 02:00:00 20.1 19 Nordeste 37 Norte 0 1013.9 -- 66
2020-10-26 01:00:00 20.6 26 Nordeste 37 Nordeste 0 1014.2 -- 65
2020-10-26 00:00:00 20.9 26 Nordeste 41 Nordeste 0 1014.7 -- 65